sensor_id;sensor_type;location;lat;lon;timestamp;temperature;humidity
3736;DHT22;1883;48.202;16.310;2022-09-09T01:03:17;16.30;46.10
3736;DHT22;1883;48.202;16.310;2022-09-09T01:08:36;16.20;46.50
3736;DHT22;1883;48.202;16.310;2022-09-09T01:11:13;16.10;46.70
3736;DHT22;1883;48.202;16.310;2022-09-09T01:13:45;16.10;47.00
3736;DHT22;1883;48.202;16.310;2022-09-09T01:16:14;16.00;47.20
3736;DHT22;1883;48.202;16.310;2022-09-09T01:18:47;16.10;47.30
3736;DHT22;1883;48.202;16.310;2022-09-09T01:21:20;16.00;47.90
3736;DHT22;1883;48.202;16.310;2022-09-09T01:24:05;16.00;48.20
3736;DHT22;1883;48.202;16.310;2022-09-09T01:26:38;15.90;48.70
3736;DHT22;1883;48.202;16.310;2022-09-09T01:29:08;15.90;50.00
3736;DHT22;1883;48.202;16.310;2022-09-09T01:31:38;15.70;50.50
3736;DHT22;1883;48.202;16.310;2022-09-09T01:34:11;15.70;50.70
3736;DHT22;1883;48.202;16.310;2022-09-09T01:36:42;15.70;50.80
3736;DHT22;1883;48.202;16.310;2022-09-09T01:39:11;15.60;50.90
3736;DHT22;1883;48.202;16.310;2022-09-09T01:41:40;15.60;50.90
3736;DHT22;1883;48.202;16.310;2022-09-09T01:44:08;15.60;51.00
3736;DHT22;1883;48.202;16.310;2022-09-09T01:46:36;15.50;51.10
3736;DHT22;1883;48.202;16.310;2022-09-09T01:49:05;15.50;51.20
3736;DHT22;1883;48.202;16.310;2022-09-09T01:51:34;15.60;51.20
3736;DHT22;1883;48.202;16.310;2022-09-09T01:54:01;15.50;51.00
3736;DHT22;1883;48.202;16.310;2022-09-09T01:56:40;15.50;51.10
3736;DHT22;1883;48.202;16.310;2022-09-09T01:59:28;15.50;50.90
3736;DHT22;1883;48.202;16.310;2022-09-09T02:02:09;15.50;50.80
3736;DHT22;1883;48.202;16.310;2022-09-09T02:04:39;15.50;51.00
3736;DHT22;1883;48.202;16.310;2022-09-09T02:07:21;15.40;51.00
3736;DHT22;1883;48.202;16.310;2022-09-09T02:10:03;15.40;50.90
3736;DHT22;1883;48.202;16.310;2022-09-09T02:12:33;15.40;50.70
3736;DHT22;1883;48.202;16.310;2022-09-09T02:15:05;15.40;50.90
3736;DHT22;1883;48.202;16.310;2022-09-09T02:17:36;15.40;50.90
3736;DHT22;1883;48.202;16.310;2022-09-09T02:20:08;15.40;50.80
3736;DHT22;1883;48.202;16.310;2022-09-09T02:22:39;15.40;51.00
3736;DHT22;1883;48.202;16.310;2022-09-09T02:25:09;15.40;51.10
3736;DHT22;1883;48.202;16.310;2022-09-09T02:27:43;15.30;51.30
3736;DHT22;1883;48.202;16.310;2022-09-09T02:30:12;15.40;51.40
3736;DHT22;1883;48.202;16.310;2022-09-09T02:32:41;15.40;51.40
3736;DHT22;1883;48.202;16.310;2022-09-09T02:35:12;15.40;51.40
3736;DHT22;1883;48.202;16.310;2022-09-09T02:37:41;15.40;51.60
3736;DHT22;1883;48.202;16.310;2022-09-09T02:40:11;15.40;51.90
3736;DHT22;1883;48.202;16.310;2022-09-09T02:42:44;15.30;51.90
3736;DHT22;1883;48.202;16.310;2022-09-09T02:45:13;15.30;52.00
3736;DHT22;1883;48.202;16.310;2022-09-09T02:47:44;15.30;52.30
3736;DHT22;1883;48.202;16.310;2022-09-09T02:50:17;15.30;52.40
3736;DHT22;1883;48.202;16.310;2022-09-09T02:55:29;15.30;52.50
3736;DHT22;1883;48.202;16.310;2022-09-09T02:58:02;15.20;52.60
3736;DHT22;1883;48.202;16.310;2022-09-09T03:00:32;15.30;52.60
3736;DHT22;1883;48.202;16.310;2022-09-09T03:05:37;15.30;52.70
3736;DHT22;1883;48.202;16.310;2022-09-09T03:08:05;15.10;52.70
3736;DHT22;1883;48.202;16.310;2022-09-09T03:13:09;15.00;52.60
3736;DHT22;1883;48.202;16.310;2022-09-09T03:15:37;14.90;52.50
3736;DHT22;1883;48.202;16.310;2022-09-09T03:18:05;14.90;52.70
3736;DHT22;1883;48.202;16.310;2022-09-09T03:20:32;14.90;52.60
3736;DHT22;1883;48.202;16.310;2022-09-09T03:23:00;14.80;52.50
3736;DHT22;1883;48.202;16.310;2022-09-09T03:25:28;15.00;52.60
3736;DHT22;1883;48.202;16.310;2022-09-09T03:27:55;15.10;52.90
3736;DHT22;1883;48.202;16.310;2022-09-09T03:30:25;15.30;53.40
3736;DHT22;1883;48.202;16.310;2022-09-09T03:32:53;15.10;53.20
3736;DHT22;1883;48.202;16.310;2022-09-09T03:35:20;15.20;53.30
3736;DHT22;1883;48.202;16.310;2022-09-09T03:37:48;15.10;53.10
3736;DHT22;1883;48.202;16.310;2022-09-09T03:40:15;15.20;53.30
3736;DHT22;1883;48.202;16.310;2022-09-09T03:42:42;15.30;53.40
3736;DHT22;1883;48.202;16.310;2022-09-09T03:45:10;15.20;53.20
3736;DHT22;1883;48.202;16.310;2022-09-09T03:47:38;15.20;53.00
3736;DHT22;1883;48.202;16.310;2022-09-09T03:50:09;15.20;53.00
3736;DHT22;1883;48.202;16.310;2022-09-09T03:52:37;15.20;52.90
3736;DHT22;1883;48.202;16.310;2022-09-09T03:55:05;15.10;52.70
3736;DHT22;1883;48.202;16.310;2022-09-09T03:57:33;15.10;52.70
